Time;durP1;ratioP1;P1;durP2;ratioP2;P2;SDS_P1;SDS_P2;PMS_P1;PMS_P2;Temp;Humidity;BMP_temperature;BMP_pressure;BME280_temperature;BME280_humidity;BME280_pressure;Samples;Min_cycle;Max_cycle;Signal;HPM_P1;HPM_P2
2022/05/04 00:01:02;;;;;;;0.00;0.00;;;8.90;99.90;;;;;;5112592;28;20190;-77
2022/05/04 00:03:27;;;;;;;0.00;0.00;;;8.90;99.90;;;;;;5113280;28;20040;-77
2022/05/04 00:05:53;;;;;;;0.00;0.00;;;8.80;99.90;;;;;;5112798;28;20040;-78
2022/05/04 00:08:19;;;;;;;0.00;0.00;;;8.80;99.90;;;;;;5096196;28;20142;-77
2022/05/04 00:10:45;;;;;;;0.13;0.03;;;8.80;99.90;;;;;;5112806;28;20047;-77
2022/05/04 00:13:11;;;;;;;0.00;0.00;;;8.90;99.90;;;;;;5095891;28;20051;-78
2022/05/04 00:15:37;;;;;;;0.00;0.00;;;8.80;99.90;;;;;;5095784;28;20052;-77
2022/05/04 00:18:03;;;;;;;0.00;0.00;;;8.80;99.90;;;;;;5112853;28;20050;-78
2022/05/04 00:20:28;;;;;;;0.20;0.13;;;8.80;99.90;;;;;;5112918;28;20040;-78
2022/05/04 00:22:54;;;;;;;0.00;0.00;;;8.80;99.90;;;;;;5116960;28;20051;-77
2022/05/04 00:25:20;;;;;;;0.00;0.00;;;8.80;99.90;;;;;;5116954;28;20068;-78
2022/05/04 00:27:46;;;;;;;0.00;0.00;;;8.80;99.90;;;;;;5117025;28;20048;-78
2022/05/04 00:30:12;;;;;;;0.00;0.00;;;8.70;99.90;;;;;;5116791;28;20043;-78
2022/05/04 00:32:37;;;;;;;0.00;0.00;;;8.70;99.90;;;;;;5117277;28;20043;-78
2022/05/04 00:35:03;;;;;;;0.00;0.00;;;8.70;99.90;;;;;;5116753;27;20062;-78
2022/05/04 00:37:29;;;;;;;0.00;0.00;;;8.70;99.90;;;;;;5116509;28;20141;-78
2022/05/04 00:39:55;;;;;;;0.00;0.00;;;8.60;99.90;;;;;;5099404;28;20138;-78
2022/05/04 00:42:21;;;;;;;0.00;0.00;;;8.60;99.90;;;;;;5116631;28;20066;-78
2022/05/04 00:44:49;;;;;;;0.00;0.00;;;8.60;99.90;;;;;;5116540;28;20043;-78
2022/05/04 00:47:16;;;;;;;0.00;0.00;;;8.70;99.90;;;;;;5116766;28;20509;-77
2022/05/04 00:49:46;;;;;;;0.00;0.00;;;8.60;99.90;;;;;;5116163;28;20552;-77
2022/05/04 00:52:13;;;;;;;0.00;0.00;;;8.60;99.90;;;;;;5099276;28;20090;-77
2022/05/04 00:54:42;;;;;;;0.00;0.00;;;8.60;99.90;;;;;;5099246;28;20448;-77
2022/05/04 00:57:09;;;;;;;0.10;0.10;;;8.80;99.90;;;;;;5099116;28;20112;-77
2022/05/04 00:59:37;;;;;;;0.00;0.00;;;8.60;99.90;;;;;;5116228;28;20055;-77
2022/05/04 01:02:03;;;;;;;0.73;0.30;;;8.60;99.90;;;;;;5115655;28;20098;-78
2022/05/04 01:04:29;;;;;;;0.00;0.00;;;8.60;99.90;;;;;;5116304;28;20083;-78
2022/05/04 01:06:55;;;;;;;0.00;0.00;;;8.60;99.90;;;;;;5116224;28;20467;-77
2022/05/04 01:09:21;;;;;;;0.00;0.00;;;8.60;99.90;;;;;;5098462;28;20066;-77
2022/05/04 01:11:47;;;;;;;0.00;0.00;;;8.60;99.90;;;;;;5116072;28;20047;-78
2022/05/04 01:14:15;;;;;;;0.00;0.00;;;8.50;99.90;;;;;;5098614;28;20627;-77
2022/05/04 01:16:48;;;;;;;0.00;0.00;;;8.50;99.90;;;;;;5099003;28;20046;-77
2022/05/04 01:19:14;;;;;;;0.00;0.00;;;8.40;99.90;;;;;;5115862;28;20051;-78
2022/05/04 01:21:40;;;;;;;0.00;0.00;;;8.50;99.90;;;;;;5098598;28;20043;-78
2022/05/04 01:24:07;;;;;;;0.00;0.00;;;8.50;99.90;;;;;;5116440;28;20044;-78
2022/05/04 01:26:33;;;;;;;0.00;0.00;;;8.50;99.90;;;;;;5115600;28;20051;-77
2022/05/04 01:28:58;;;;;;;0.00;0.00;;;8.50;99.90;;;;;;5098500;28;20047;-77
2022/05/04 01:31:24;;;;;;;1.25;0.73;;;8.50;99.90;;;;;;5115079;28;20048;-78
2022/05/04 01:33:50;;;;;;;0.10;0.10;;;8.50;99.90;;;;;;5098651;28;20055;-78
2022/05/04 01:36:15;;;;;;;0.00;0.00;;;8.50;99.90;;;;;;5098689;28;20081;-77
2022/05/04 01:38:41;;;;;;;2.92;0.55;;;8.50;99.90;;;;;;5115400;28;20048;-78
2022/05/04 01:42:02;;;;;;;0.00;0.00;;;8.40;99.90;;;;;;5097966;28;20062;-77
2022/05/04 01:43:52;;;;;;;0.00;0.00;;;8.40;99.90;;;;;;5115521;28;20051;-78
2022/05/04 01:46:19;;;;;;;0.00;0.00;;;8.40;99.90;;;;;;5115169;28;20051;-78
2022/05/04 01:48:45;;;;;;;0.00;0.00;;;8.30;99.90;;;;;;5115161;28;20137;-78
2022/05/04 01:51:10;;;;;;;0.00;0.00;;;8.30;99.90;;;;;;5115390;28;20134;-77
2022/05/04 01:53:36;;;;;;;0.45;0.45;;;8.30;99.90;;;;;;5115575;28;20467;-78
2022/05/04 01:56:06;;;;;;;0.05;0.05;;;8.40;99.90;;;;;;5098009;28;20055;-77
2022/05/04 01:58:32;;;;;;;0.00;0.00;;;8.30;99.90;;;;;;5115491;28;20036;-77
2022/05/04 02:00:58;;;;;;;3.42;0.80;;;8.30;99.90;;;;;;5097289;28;20089;-77
2022/05/04 02:03:25;;;;;;;0.00;0.00;;;8.30;99.90;;;;;;5115506;28;20079;-78
2022/05/04 02:05:51;;;;;;;0.00;0.00;;;8.30;99.90;;;;;;5115414;28;20100;-78
2022/05/04 02:08:17;;;;;;;0.32;0.25;;;8.30;99.90;;;;;;5098355;28;20139;-77
2022/05/04 02:10:43;;;;;;;2.42;0.55;;;8.30;99.90;;;;;;5114729;28;20044;-78
2022/05/04 02:13:08;;;;;;;0.05;0.05;;;8.30;99.90;;;;;;5097803;28;20052;-78
2022/05/04 02:15:34;;;;;;;0.00;0.00;;;8.30;99.90;;;;;;5097998;28;20048;-77
2022/05/04 02:17:59;;;;;;;0.32;0.20;;;8.30;99.90;;;;;;5114523;28;20131;-78
2022/05/04 02:20:25;;;;;;;0.00;0.00;;;8.30;99.90;;;;;;5114408;28;20486;-78
2022/05/04 02:22:51;;;;;;;0.00;0.00;;;8.30;99.90;;;;;;5114567;28;20048;-78
2022/05/04 02:25:17;;;;;;;0.00;0.00;;;8.30;99.90;;;;;;5097448;28;20055;-78
2022/05/04 02:27:43;;;;;;;0.00;0.00;;;8.30;99.90;;;;;;5097703;28;20560;-78
2022/05/04 02:30:09;;;;;;;0.00;0.00;;;8.20;99.90;;;;;;5114552;28;20056;-77
2022/05/04 02:32:35;;;;;;;0.47;0.20;;;8.20;99.90;;;;;;5114060;28;20047;-78
2022/05/04 02:37:57;;;;;;;0.00;0.00;;;8.20;99.90;;;;;;5114748;28;20556;-78
2022/05/04 02:40:27;;;;;;;0.00;0.00;;;8.20;99.90;;;;;;5097032;28;20047;-78
2022/05/04 02:42:54;;;;;;;0.00;0.00;;;8.30;99.90;;;;;;5096828;28;20050;-77
2022/05/04 02:45:19;;;;;;;0.00;0.00;;;8.20;99.90;;;;;;5113712;28;20124;-78
2022/05/04 02:47:45;;;;;;;0.00;0.00;;;8.20;99.90;;;;;;5114081;28;20047;-78
2022/05/04 02:50:11;;;;;;;0.00;0.00;;;8.20;99.90;;;;;;5113838;28;20047;-78
2022/05/04 02:52:36;;;;;;;0.00;0.00;;;8.20;99.90;;;;;;5113967;28;20039;-77
2022/05/04 02:55:03;;;;;;;0.00;0.00;;;8.20;99.90;;;;;;5114101;28;20056;-78
2022/05/04 02:57:29;;;;;;;0.00;0.00;;;8.20;99.90;;;;;;5096996;28;20052;-78
2022/05/04 02:59:54;;;;;;;0.00;0.00;;;8.20;99.90;;;;;;5097487;28;20051;-78
2022/05/04 03:02:29;;;;;;;0.00;0.00;;;8.20;99.90;;;;;;5096224;28;20048;-78
2022/05/04 03:05:04;;;;;;;7.65;0.00;;;8.20;99.90;;;;;;5097150;28;20087;-78
2022/05/04 03:07:29;;;;;;;;;;;8.10;99.90;;;;;;5096992;28;20043;-78
2022/05/04 03:09:57;;;;;;;0.00;0.00;;;8.10;99.90;;;;;;5113548;28;19931;-78
2022/05/04 03:12:23;;;;;;;0.00;0.00;;;8.10;99.90;;;;;;5113380;28;20506;-78
2022/05/04 03:14:49;;;;;;;0.00;0.00;;;8.10;99.90;;;;;;5096642;28;20088;-78
2022/05/04 03:17:15;;;;;;;0.05;0.05;;;8.10;99.90;;;;;;5113355;28;20410;-78
2022/05/04 03:19:41;;;;;;;0.00;0.00;;;8.10;99.90;;;;;;5113818;28;20139;-78
2022/05/04 03:22:07;;;;;;;0.00;0.00;;;8.10;99.90;;;;;;5113641;28;20122;-78
2022/05/04 03:24:32;;;;;;;0.00;0.00;;;8.00;99.90;;;;;;5113365;28;20043;-78
2022/05/04 03:26:59;;;;;;;0.15;0.15;;;8.00;99.90;;;;;;5097206;28;20564;-78
2022/05/04 03:29:25;;;;;;;0.00;0.00;;;7.90;99.90;;;;;;5113374;28;20050;-78
2022/05/04 03:31:51;;;;;;;1.27;0.40;;;8.00;99.90;;;;;;5113327;28;20077;-78
2022/05/04 03:34:16;;;;;;;0.00;0.00;;;8.00;99.90;;;;;;5113606;28;20383;-78
2022/05/04 03:36:42;;;;;;;0.20;0.03;;;8.00;99.90;;;;;;5113373;28;20047;-78
2022/05/04 03:39:08;;;;;;;0.00;0.00;;;7.90;99.90;;;;;;5113174;28;20061;-78
2022/05/04 03:41:35;;;;;;;0.00;0.00;;;7.90;99.90;;;;;;5113207;28;20035;-78
2022/05/04 03:44:01;;;;;;;0.13;0.13;;;7.90;99.90;;;;;;5095774;28;20484;-78
2022/05/04 03:46:28;;;;;;;0.00;0.00;;;7.90;99.90;;;;;;5095984;28;20066;-78
2022/05/04 03:48:55;;;;;;;0.00;0.00;;;7.90;99.90;;;;;;5113404;28;20166;-78
2022/05/04 03:51:22;;;;;;;0.00;0.00;;;7.80;99.90;;;;;;5095884;28;20552;-78
2022/05/04 03:53:49;;;;;;;0.93;0.22;;;7.80;99.90;;;;;;5096281;28;20040;-78
2022/05/04 03:56:15;;;;;;;0.00;0.00;;;7.80;99.90;;;;;;5116660;28;20097;-78
2022/05/04 03:58:42;;;;;;;0.00;0.00;;;7.90;99.90;;;;;;5117954;28;20054;-78
2022/05/04 04:01:08;;;;;;;0.00;0.00;;;7.80;99.90;;;;;;5099767;28;20114;-78
2022/05/04 04:03:34;;;;;;;0.00;0.00;;;7.80;99.90;;;;;;5117510;28;20059;-78
2022/05/04 04:06:00;;;;;;;0.00;0.00;;;7.80;99.90;;;;;;5100135;28;20131;-78
2022/05/04 04:08:26;;;;;;;0.00;0.00;;;7.90;99.90;;;;;;5117160;28;20417;-78
2022/05/04 04:10:52;;;;;;;0.90;0.00;;;7.90;99.90;;;;;;5117335;28;20058;-78
2022/05/04 04:13:18;;;;;;;0.00;0.00;;;7.90;99.90;;;;;;5099660;28;20059;-78
2022/05/04 04:15:44;;;;;;;0.25;0.20;;;8.00;99.90;;;;;;5117228;28;20051;-78
2022/05/04 04:18:10;;;;;;;0.00;0.00;;;7.90;99.90;;;;;;5117331;28;20571;-78
2022/05/04 04:23:20;;;;;;;0.63;0.30;;;7.90;99.90;;;;;;5117781;28;20040;-78
2022/05/04 04:25:49;;;;;;;0.00;0.00;;;7.90;99.90;;;;;;5117008;28;20040;-78
2022/05/04 04:28:15;;;;;;;0.10;0.10;;;7.90;99.90;;;;;;5117091;28;20054;-78
2022/05/04 04:30:41;;;;;;;8.77;0.20;;;7.90;99.90;;;;;;5116865;28;20052;-79
2022/05/04 04:33:06;;;;;;;0.00;0.00;;;7.90;99.90;;;;;;5117015;28;20475;-78
2022/05/04 04:35:36;;;;;;;0.00;0.00;;;8.00;99.90;;;;;;5117338;28;20078;-78
2022/05/04 04:38:01;;;;;;;0.00;0.00;;;8.00;99.90;;;;;;5116648;28;20047;-78
2022/05/04 04:40:27;;;;;;;0.00;0.00;;;8.00;99.90;;;;;;5117108;28;20386;-79
2022/05/04 04:42:53;;;;;;;0.00;0.00;;;8.10;99.90;;;;;;5116612;28;20071;-79
2022/05/04 04:45:19;;;;;;;0.00;0.00;;;8.10;99.90;;;;;;5116520;28;20116;-78
2022/05/04 04:47:46;;;;;;;0.00;0.00;;;8.10;99.90;;;;;;5116401;28;20122;-78
2022/05/04 04:50:11;;;;;;;0.00;0.00;;;8.10;99.90;;;;;;5116535;28;20204;-78
2022/05/04 04:52:37;;;;;;;0.00;0.00;;;8.10;99.90;;;;;;5099696;28;20130;-78
2022/05/04 04:55:04;;;;;;;0.00;0.00;;;8.20;99.90;;;;;;5116355;28;20057;-79
2022/05/04 04:57:30;;;;;;;0.00;0.00;;;8.20;99.90;;;;;;5116817;28;20053;-78
2022/05/04 04:59:55;;;;;;;0.00;0.00;;;8.20;99.90;;;;;;5116324;28;20048;-78
2022/05/04 05:02:21;;;;;;;0.00;0.00;;;8.20;99.90;;;;;;5098905;28;20050;-78
2022/05/04 05:04:47;;;;;;;0.47;0.32;;;8.30;99.90;;;;;;5098945;28;20138;-78
2022/05/04 05:07:13;;;;;;;0.00;0.00;;;8.20;99.90;;;;;;5115271;28;20387;-78
2022/05/04 05:09:38;;;;;;;0.00;0.00;;;8.30;99.90;;;;;;5116250;28;20036;-78
2022/05/04 05:12:04;;;;;;;0.00;0.00;;;8.30;99.90;;;;;;5098929;28;20112;-79
2022/05/04 05:17:14;;;;;;;0.38;0.38;;;8.40;99.90;;;;;;5116226;28;20039;-78
2022/05/04 05:19:40;;;;;;;0.00;0.00;;;8.40;99.90;;;;;;5099569;28;20039;-78
2022/05/04 05:22:06;;;;;;;0.00;0.00;;;8.50;99.90;;;;;;5115796;28;20456;-78
2022/05/04 05:24:32;;;;;;;0.08;0.00;;;8.40;99.90;;;;;;5115826;28;20059;-79
2022/05/04 05:26:57;;;;;;;0.00;0.00;;;8.50;99.90;;;;;;5115667;28;20044;-78
2022/05/04 05:29:23;;;;;;;0.00;0.00;;;8.60;99.90;;;;;;5098632;28;20055;-78
2022/05/04 05:31:49;;;;;;;0.00;0.00;;;8.60;99.90;;;;;;5115663;28;20126;-78
2022/05/04 05:34:14;;;;;;;0.00;0.00;;;8.60;99.90;;;;;;5115577;28;20391;-78
2022/05/04 05:36:40;;;;;;;0.25;0.25;;;8.60;99.90;;;;;;5116117;28;20043;-79
2022/05/04 05:39:06;;;;;;;12.13;0.68;;;8.80;99.90;;;;;;5115560;28;20046;-78
2022/05/04 05:41:31;;;;;;;0.10;0.00;;;8.70;99.90;;;;;;5115246;28;20039;-79
2022/05/04 05:43:57;;;;;;;0.22;0.22;;;8.80;99.90;;;;;;5115516;28;20040;-78
2022/05/04 05:46:23;;;;;;;0.00;0.00;;;8.80;99.90;;;;;;5115154;28;20048;-79
2022/05/04 05:48:48;;;;;;;0.00;0.00;;;8.80;99.90;;;;;;5098670;28;20104;-78
2022/05/04 05:51:14;;;;;;;0.00;0.00;;;8.90;99.90;;;;;;5115480;28;20479;-78
2022/05/04 05:53:40;;;;;;;5.28;0.47;;;8.90;99.90;;;;;;5115314;28;20043;-78
2022/05/04 05:56:06;;;;;;;0.00;0.00;;;9.00;99.90;;;;;;5115104;28;20063;-79
2022/05/04 05:58:32;;;;;;;0.00;0.00;;;9.00;99.90;;;;;;5098048;28;20108;-78
2022/05/04 06:00:58;;;;;;;0.13;0.05;;;9.10;99.90;;;;;;5098431;28;20051;-78
2022/05/04 06:03:24;;;;;;;0.00;0.00;;;9.10;99.90;;;;;;5114641;28;20051;-78
2022/05/04 06:05:52;;;;;;;0.17;0.17;;;9.20;99.90;;;;;;5115013;28;20126;-79
2022/05/04 06:08:18;;;;;;;0.00;0.00;;;9.30;99.90;;;;;;5115122;28;20040;-78
2022/05/04 06:10:44;;;;;;;0.00;0.00;;;9.40;99.90;;;;;;5097927;28;20048;-79
2022/05/04 06:13:10;;;;;;;0.00;0.00;;;9.40;99.90;;;;;;5097783;28;20040;-78
2022/05/04 06:15:36;;;;;;;0.00;0.00;;;9.40;99.90;;;;;;5114586;28;20092;-78
2022/05/04 06:18:02;;;;;;;0.00;0.00;;;9.50;99.90;;;;;;5114901;28;20130;-78
2022/05/04 06:20:29;;;;;;;1.75;0.43;;;9.60;99.90;;;;;;5114835;28;20051;-78
2022/05/04 06:22:55;;;;;;;0.35;0.20;;;9.60;99.90;;;;;;5114762;28;20052;-78
2022/05/04 06:25:21;;;;;;;0.20;0.10;;;9.70;99.90;;;;;;5115142;28;20394;-78
2022/05/04 06:27:46;;;;;;;1.27;0.47;;;9.70;99.90;;;;;;5097546;28;20048;-78
2022/05/04 06:35:41;;;;;;;0.00;0.00;;;9.90;99.90;;;;;;5114563;28;20048;-79
2022/05/04 06:38:06;;;;;;;0.00;0.00;;;9.90;99.90;;;;;;5114260;28;20047;-78
2022/05/04 06:40:32;;;;;;;0.00;0.00;;;10.00;99.90;;;;;;5114495;28;20075;-78
2022/05/04 06:42:59;;;;;;;0.10;0.00;;;10.00;99.40;;;;;;5097165;28;20051;-78
2022/05/04 06:45:25;;;;;;;0.05;0.05;;;10.10;99.60;;;;;;5114301;28;20040;-78
2022/05/04 06:47:51;;;;;;;0.00;0.00;;;10.20;99.40;;;;;;5114300;28;20181;-78
2022/05/04 06:50:17;;;;;;;0.13;0.08;;;10.40;99.00;;;;;;5114328;28;20048;-78
2022/05/04 06:52:43;;;;;;;0.17;0.17;;;10.50;99.20;;;;;;5114076;28;20044;-78
2022/05/04 06:55:09;;;;;;;0.00;0.00;;;10.60;98.70;;;;;;5097264;28;20059;-78
2022/05/04 06:57:36;;;;;;;0.00;0.00;;;10.80;98.90;;;;;;5096827;28;20490;-78
2022/05/04 07:00:06;;;;;;;0.43;0.38;;;10.90;98.50;;;;;;5113842;28;20399;-78
2022/05/04 07:02:35;;;;;;;0.00;0.00;;;11.00;97.20;;;;;;5113635;28;20076;-78
2022/05/04 07:05:02;;;;;;;0.00;0.00;;;11.20;97.10;;;;;;5114065;28;20083;-78
2022/05/04 07:07:27;;;;;;;0.10;0.00;;;11.40;97.10;;;;;;5113791;28;20039;-78
2022/05/04 07:09:53;;;;;;;0.00;0.00;;;11.40;97.00;;;;;;5114391;28;20096;-78
2022/05/04 07:12:20;;;;;;;0.00;0.00;;;11.50;96.30;;;;;;5113701;28;20043;-78
2022/05/04 07:14:46;;;;;;;5.53;1.23;;;11.90;97.30;;;;;;5096824;28;20454;-78
2022/05/04 07:17:12;;;;;;;0.10;0.10;;;12.50;96.70;;;;;;5113821;28;20145;-78
2022/05/04 07:19:37;;;;;;;1.35;0.05;;;12.80;94.20;;;;;;5113571;28;20510;-78
2022/05/04 07:22:03;;;;;;;0.00;0.00;;;12.80;93.40;;;;;;5113190;28;20044;-78
2022/05/04 07:24:29;;;;;;;0.00;0.00;;;13.00;93.70;;;;;;5113550;28;20046;-78
2022/05/04 07:26:55;;;;;;;0.10;0.10;;;12.90;93.50;;;;;;5113420;28;20051;-78
2022/05/04 07:29:21;;;;;;;0.00;0.00;;;12.90;93.50;;;;;;5112890;27;20043;-78
2022/05/04 07:31:47;;;;;;;0.00;0.00;;;13.00;94.20;;;;;;5113469;28;20167;-78
2022/05/04 07:34:17;;;;;;;0.35;0.20;;;13.10;93.60;;;;;;5113528;28;20089;-78
2022/05/04 07:36:44;;;;;;;0.10;0.10;;;13.20;94.20;;;;;;5113284;28;20051;-78
2022/05/04 07:42:21;;;;;;;0.00;0.00;;;13.30;93.40;;;;;;5113411;28;20043;-78
2022/05/04 07:44:40;;;;;;;0.00;0.00;;;13.60;92.40;;;;;;5113158;28;20043;-78
2022/05/04 07:47:07;;;;;;;0.00;0.00;;;13.60;91.50;;;;;;5096125;28;20061;-78
2022/05/04 07:49:32;;;;;;;0.32;0.15;;;13.50;90.90;;;;;;5112802;28;20044;-78
2022/05/04 07:51:58;;;;;;;0.00;0.00;;;13.40;90.60;;;;;;5096611;28;20078;-78
2022/05/04 07:54:24;;;;;;;0.10;0.10;;;13.40;90.90;;;;;;5113820;28;20102;-78
2022/05/04 07:56:49;;;;;;;0.68;0.20;;;13.40;91.70;;;;;;5113162;28;20039;-78
2022/05/04 07:59:15;;;;;;;1.38;0.45;;;13.30;91.90;;;;;;5112998;28;20050;-78
2022/05/04 08:04:25;;;;;;;0.00;0.00;;;13.30;91.70;;;;;;5113681;28;20082;-78
2022/05/04 08:06:51;;;;;;;0.00;0.00;;;13.40;91.90;;;;;;5112811;28;20491;-78
2022/05/04 08:09:16;;;;;;;0.17;0.00;;;13.50;90.90;;;;;;5112987;28;20047;-78
2022/05/04 08:11:43;;;;;;;0.35;0.35;;;13.60;90.60;;;;;;5112960;28;20048;-78
2022/05/04 08:14:10;;;;;;;0.00;0.00;;;13.60;91.50;;;;;;5112938;28;20044;-78
2022/05/04 08:16:37;;;;;;;0.38;0.30;;;13.50;90.60;;;;;;5095923;28;20056;-77
2022/05/04 08:19:03;;;;;;;0.00;0.00;;;13.50;91.00;;;;;;5112836;28;20047;-78
2022/05/04 08:21:29;;;;;;;0.25;0.25;;;13.50;89.20;;;;;;5112775;28;20043;-78
2022/05/04 08:23:55;;;;;;;0.00;0.00;;;13.50;90.90;;;;;;5112903;28;20445;-78
2022/05/04 08:26:21;;;;;;;0.00;0.00;;;13.50;90.00;;;;;;5095678;28;20040;-78
2022/05/04 08:28:46;;;;;;;0.00;0.00;;;13.50;87.90;;;;;;5095784;28;20047;-78
2022/05/04 08:31:12;;;;;;;0.00;0.00;;;13.50;88.10;;;;;;5095664;28;20405;-77
2022/05/04 08:33:37;;;;;;;0.00;0.00;;;13.60;90.50;;;;;;5112743;28;20070;-78
2022/05/04 08:36:03;;;;;;;0.00;0.00;;;13.70;90.30;;;;;;5112992;28;20052;-78
2022/05/04 08:38:29;;;;;;;0.00;0.00;;;13.70;90.90;;;;;;5112746;28;20043;-78
2022/05/04 08:40:56;;;;;;;0.00;0.00;;;13.60;90.50;;;;;;5112539;28;20127;-78
2022/05/04 08:43:24;;;;;;;0.85;0.10;;;13.80;90.30;;;;;;5115415;28;20038;-78
2022/05/04 08:45:54;;;;;;;0.00;0.00;;;14.00;91.10;;;;;;5117295;28;20067;-78
2022/05/04 08:48:22;;;;;;;0.00;0.00;;;13.90;90.00;;;;;;5116394;28;20093;-78
2022/05/04 08:50:49;;;;;;;0.00;0.00;;;13.80;90.20;;;;;;5116447;28;20047;-78
2022/05/04 08:53:16;;;;;;;0.20;0.20;;;13.80;89.00;;;;;;5116320;28;20108;-78
2022/05/04 08:55:44;;;;;;;2.28;0.43;;;13.60;88.40;;;;;;5099388;28;20441;-78
2022/05/04 08:58:09;;;;;;;0.00;0.00;;;13.60;90.20;;;;;;5116022;28;20116;-78
2022/05/04 09:00:35;;;;;;;0.00;0.00;;;13.60;91.10;;;;;;5116658;28;20459;-78
2022/05/04 09:03:01;;;;;;;0.00;0.00;;;13.90;90.70;;;;;;5099004;28;20051;-78
2022/05/04 09:05:29;;;;;;;6.53;0.38;;;13.90;89.80;;;;;;5099243;28;20058;-77
2022/05/04 09:07:56;;;;;;;0.38;0.38;;;13.80;88.70;;;;;;5099189;28;20151;-78
2022/05/04 09:10:35;;;;;;;0.43;0.10;;;13.80;88.10;;;;;;5116014;28;20047;-78
2022/05/04 09:13:03;;;;;;;0.13;0.13;;;13.90;89.00;;;;;;5116931;28;20088;-78
2022/05/04 09:15:37;;;;;;;0.00;0.00;;;13.90;89.20;;;;;;5099089;28;20048;-78
2022/05/04 09:18:13;;;;;;;0.32;0.20;;;13.80;90.00;;;;;;5116137;28;20047;-78
2022/05/04 09:20:49;;;;;;;0.00;0.00;;;13.60;87.30;;;;;;5098893;28;20181;-78
2022/05/04 09:23:20;;;;;;;0.00;0.00;;;13.70;88.70;;;;;;5098746;28;20047;-78
2022/05/04 09:25:50;;;;;;;0.00;0.00;;;13.80;89.00;;;;;;5115942;28;20044;-78
2022/05/04 09:28:16;;;;;;;0.57;0.50;;;13.90;87.70;;;;;;5115722;28;20072;-78
2022/05/04 09:30:50;;;;;;;0.10;0.10;;;13.90;87.80;;;;;;5115505;28;20047;-78
2022/05/04 09:33:26;;;;;;;0.07;0.00;;;13.80;89.20;;;;;;5115488;28;20055;-78
2022/05/04 09:35:52;;;;;;;0.00;0.00;;;13.90;85.60;;;;;;5098756;28;20296;-78
2022/05/04 09:46:42;;;;;;;0.00;0.00;;;15.60;86.60;;;;;;5115853;28;20437;-78
2022/05/04 09:49:30;;;;;;;0.20;0.10;;;15.70;83.90;;;;;;5098424;28;20066;-78
2022/05/04 09:51:56;;;;;;;0.65;0.65;;;16.10;85.70;;;;;;5098608;28;20108;-78
2022/05/04 09:54:23;;;;;;;0.10;0.10;;;16.10;81.40;;;;;;5115157;28;20055;-78
2022/05/04 09:57:00;;;;;;;1.50;0.55;;;15.80;83.10;;;;;;5115992;28;20429;-78
2022/05/04 09:59:29;;;;;;;0.10;0.10;;;15.50;81.50;;;;;;5115384;28;20043;-78
2022/05/04 10:01:55;;;;;;;0.08;0.08;;;15.30;83.90;;;;;;5114678;28;20063;-78
2022/05/04 10:04:23;;;;;;;1.55;0.43;;;15.40;81.50;;;;;;5115038;28;20050;-78
2022/05/04 10:06:50;;;;;;;0.00;0.00;;;15.30;82.10;;;;;;5114799;28;20043;-78
2022/05/04 10:09:18;;;;;;;0.00;0.00;;;15.60;81.20;;;;;;5114962;28;20161;-78
2022/05/04 10:11:44;;;;;;;0.00;0.00;;;15.80;83.10;;;;;;5098559;28;20056;-78
2022/05/04 10:14:13;;;;;;;0.25;0.25;;;16.10;84.30;;;;;;5114795;28;20044;-78
2022/05/04 10:16:45;;;;;;;0.03;0.03;;;16.50;81.90;;;;;;5114830;28;20048;-78
2022/05/04 10:19:20;;;;;;;0.10;0.10;;;16.40;80.30;;;;;;5097546;28;20394;-78
2022/05/04 10:21:51;;;;;;;0.00;0.00;;;16.10;78.10;;;;;;5114602;28;20135;-78
2022/05/04 10:24:19;;;;;;;0.00;0.00;;;15.70;78.80;;;;;;5115246;28;20043;-78
2022/05/04 10:26:45;;;;;;;0.00;0.00;;;15.40;78.80;;;;;;5114757;28;20087;-78
2022/05/04 10:32:09;;;;;;;0.00;0.00;;;14.80;80.70;;;;;;5114489;28;20095;-78
2022/05/04 10:34:41;;;;;;;0.00;0.00;;;15.00;82.60;;;;;;5114439;28;20044;-78
2022/05/04 10:37:07;;;;;;;0.00;0.00;;;15.40;81.00;;;;;;5114257;28;20134;-78
2022/05/04 10:39:33;;;;;;;4.70;0.47;;;15.90;80.50;;;;;;5114466;28;20131;-78
2022/05/04 10:42:00;;;;;;;0.00;0.00;;;16.30;78.50;;;;;;5113779;28;20070;-78
2022/05/04 10:44:52;;;;;;;0.00;0.00;;;16.60;75.50;;;;;;5114371;28;20043;-78
2022/05/04 10:47:19;;;;;;;0.15;0.15;;;17.00;76.40;;;;;;5114063;28;20089;-78
2022/05/04 10:49:44;;;;;;;0.00;0.00;;;16.90;74.10;;;;;;5114011;28;20160;-78
2022/05/04 10:52:10;;;;;;;0.75;0.20;;;17.00;75.80;;;;;;5114136;28;20076;-78
2022/05/04 10:54:48;;;;;;;0.05;0.05;;;17.30;74.30;;;;;;5113847;28;20532;-78
2022/05/04 10:57:14;;;;;;;0.00;0.00;;;17.50;74.10;;;;;;5113904;28;20483;-78
2022/05/04 10:59:40;;;;;;;0.00;0.00;;;17.70;74.10;;;;;;5114377;28;20096;-78
2022/05/04 11:02:11;;;;;;;0.10;0.00;;;17.90;74.70;;;;;;5096613;28;20059;-79
2022/05/04 11:04:40;;;;;;;0.00;0.00;;;17.90;72.80;;;;;;5096216;28;20044;-78
2022/05/04 11:07:08;;;;;;;0.00;0.00;;;17.80;73.10;;;;;;5113751;28;20483;-78
2022/05/04 11:09:37;;;;;;;0.03;0.00;;;17.70;69.30;;;;;;5113826;28;20050;-78
2022/05/04 11:12:08;;;;;;;0.00;0.00;;;17.60;74.20;;;;;;5114139;28;20040;-79
2022/05/04 11:14:34;;;;;;;0.63;0.13;;;17.40;69.10;;;;;;5096714;28;20047;-78
2022/05/04 11:17:02;;;;;;;0.00;0.00;;;17.10;71.70;;;;;;5096520;28;20054;-78
2022/05/04 11:19:30;;;;;;;1.55;0.38;;;17.10;73.80;;;;;;5113380;28;20044;-78
2022/05/04 11:21:57;;;;;;;0.00;0.00;;;17.40;73.90;;;;;;5096304;28;20056;-78
2022/05/04 11:24:25;;;;;;;0.00;0.00;;;17.70;74.00;;;;;;5113457;28;20498;-79
2022/05/04 11:26:52;;;;;;;0.10;0.00;;;18.00;73.90;;;;;;5113573;28;20391;-78
2022/05/04 11:29:26;;;;;;;0.00;0.00;;;18.20;70.80;;;;;;5113393;28;20035;-78
2022/05/04 11:32:04;;;;;;;0.00;0.00;;;18.10;68.60;;;;;;5096344;28;20414;-78
2022/05/04 11:34:35;;;;;;;0.00;0.00;;;18.00;71.70;;;;;;5113378;28;20480;-78
2022/05/04 11:37:08;;;;;;;0.00;0.00;;;17.90;67.80;;;;;;5113262;28;20494;-78
2022/05/04 11:39:36;;;;;;;0.38;0.38;;;17.70;66.80;;;;;;5113892;28;20389;-78
2022/05/04 11:42:03;;;;;;;0.15;0.15;;;17.80;67.70;;;;;;5095910;28;20424;-78
2022/05/04 11:44:31;;;;;;;0.00;0.00;;;18.00;68.10;;;;;;5096147;28;20070;-79
2022/05/04 11:46:58;;;;;;;1.13;0.50;;;18.00;68.50;;;;;;5096898;28;20043;-78
2022/05/04 11:49:26;;;;;;;1.08;0.32;;;18.00;69.20;;;;;;5113402;28;20506;-78
2022/05/04 11:51:53;;;;;;;0.00;0.00;;;17.80;67.50;;;;;;5113232;28;20044;-78
2022/05/04 11:54:19;;;;;;;0.10;0.10;;;17.80;67.00;;;;;;5113040;28;20051;-78
2022/05/04 11:56:45;;;;;;;0.17;0.17;;;17.70;66.40;;;;;;5113154;28;20100;-78
2022/05/04 11:59:11;;;;;;;0.95;0.20;;;17.80;65.30;;;;;;5113034;28;20044;-78
2022/05/04 12:01:37;;;;;;;0.00;0.00;;;17.80;65.60;;;;;;5113231;28;20491;-78
2022/05/04 12:04:05;;;;;;;0.00;0.00;;;18.00;64.40;;;;;;5112956;28;20086;-78
2022/05/04 12:06:31;;;;;;;0.00;0.00;;;17.80;66.40;;;;;;5112963;28;20092;-78
2022/05/04 12:08:58;;;;;;;0.10;0.10;;;17.80;64.50;;;;;;5112702;28;20497;-78
2022/05/04 12:11:23;;;;;;;0.00;0.00;;;18.10;64.00;;;;;;5112672;28;20051;-78
2022/05/04 12:13:50;;;;;;;0.00;0.00;;;18.20;64.70;;;;;;5095835;28;20475;-78
2022/05/04 12:16:16;;;;;;;0.17;0.17;;;18.10;63.90;;;;;;5114368;28;20053;-78
2022/05/04 12:18:42;;;;;;;0.00;0.00;;;18.20;65.90;;;;;;5117235;28;20042;-78
2022/05/04 12:21:17;;;;;;;0.10;0.10;;;18.40;67.60;;;;;;5099872;28;20035;-78
2022/05/04 12:23:52;;;;;;;1.02;0.55;;;18.40;65.80;;;;;;5117233;28;20055;-79
2022/05/04 12:26:18;;;;;;;0.00;0.00;;;18.50;66.60;;;;;;5099773;28;20051;-78
2022/05/04 12:34:15;;;;;;;;;;;19.20;63.40;;;;;;5117286;28;20068;-78
2022/05/04 12:36:43;;;;;;;0.13;0.13;;;19.10;62.60;;;;;;5116670;28;20010;-78
2022/05/04 12:39:08;;;;;;;0.00;0.00;;;19.20;63.50;;;;;;5116719;28;20052;-79
2022/05/04 12:41:34;;;;;;;0.10;0.10;;;18.90;61.80;;;;;;5116514;28;20040;-79
2022/05/04 12:44:03;;;;;;;0.00;0.00;;;18.80;62.50;;;;;;5116482;28;20054;-78
2022/05/04 12:46:29;;;;;;;0.10;0.10;;;19.00;62.90;;;;;;5099705;28;20168;-78
2022/05/04 12:48:56;;;;;;;0.00;0.00;;;19.10;62.00;;;;;;5099720;28;20504;-78
2022/05/04 12:51:24;;;;;;;0.20;0.15;;;19.20;63.00;;;;;;5116507;28;20460;-78
2022/05/04 12:53:50;;;;;;;0.00;0.00;;;19.00;59.70;;;;;;5099135;28;20051;-78
2022/05/04 12:59:01;;;;;;;0.00;0.00;;;18.70;59.90;;;;;;5116516;28;20050;-78
2022/05/04 13:01:30;;;;;;;1.35;0.40;;;18.80;61.90;;;;;;5098580;28;20574;-78
2022/05/04 13:03:56;;;;;;;0.10;0.00;;;18.80;61.80;;;;;;5116793;28;20525;-78
2022/05/04 13:06:22;;;;;;;0.00;0.00;;;19.10;62.90;;;;;;5116160;28;20043;-78
2022/05/04 13:08:49;;;;;;;1.35;0.45;;;19.30;62.20;;;;;;5116347;28;20052;-79
2022/05/04 13:11:22;;;;;;;0.00;0.00;;;19.40;61.20;;;;;;5099208;28;20101;-79
2022/05/04 13:13:47;;;;;;;0.10;0.10;;;19.60;61.40;;;;;;5115931;28;20157;-79
2022/05/04 13:16:13;;;;;;;25.23;0.88;;;19.50;60.90;;;;;;5098787;28;20114;-78
2022/05/04 13:18:39;;;;;;;0.00;0.00;;;19.20;58.60;;;;;;5116490;28;20043;-78
2022/05/04 13:21:06;;;;;;;0.00;0.00;;;19.10;59.10;;;;;;5098716;28;20051;-78
2022/05/04 13:23:31;;;;;;;0.00;0.00;;;19.20;61.00;;;;;;5116089;28;20040;-79
2022/05/04 13:25:57;;;;;;;0.70;0.35;;;19.10;60.30;;;;;;5116014;28;20032;-78
2022/05/04 13:28:23;;;;;;;0.20;0.10;;;19.00;60.70;;;;;;5115054;28;20442;-79
2022/05/04 13:30:49;;;;;;;0.00;0.00;;;18.90;60.50;;;;;;5098466;28;20466;-79